sensor_id;sensor_type;location;lat;lon;timestamp;temperature;humidity
5154;DHT22;2595;53.584;10.084;2023-03-08T00:00:40;2.10;99.90
5154;DHT22;2595;53.584;10.084;2023-03-08T00:03:06;2.10;99.90
5154;DHT22;2595;53.584;10.084;2023-03-08T00:05:31;2.10;99.90
5154;DHT22;2595;53.584;10.084;2023-03-08T00:07:57;2.10;99.90
5154;DHT22;2595;53.584;10.084;2023-03-08T00:10:23;2.10;99.90
5154;DHT22;2595;53.584;10.084;2023-03-08T00:12:48;2.10;99.90
5154;DHT22;2595;53.584;10.084;2023-03-08T00:15:14;2.10;99.90
5154;DHT22;2595;53.584;10.084;2023-03-08T00:17:40;2.00;99.90
5154;DHT22;2595;53.584;10.084;2023-03-08T00:20:07;2.00;99.90
5154;DHT22;2595;53.584;10.084;2023-03-08T00:22:40;2.00;99.90
5154;DHT22;2595;53.584;10.084;2023-03-08T00:25:07;2.00;99.90
5154;DHT22;2595;53.584;10.084;2023-03-08T00:27:34;1.90;99.90
5154;DHT22;2595;53.584;10.084;2023-03-08T00:30:01;1.90;99.90
5154;DHT22;2595;53.584;10.084;2023-03-08T00:32:27;1.90;99.90
5154;DHT22;2595;53.584;10.084;2023-03-08T00:34:53;1.90;99.90
5154;DHT22;2595;53.584;10.084;2023-03-08T00:37:19;1.90;99.90
5154;DHT22;2595;53.584;10.084;2023-03-08T00:39:50;1.90;99.90
5154;DHT22;2595;53.584;10.084;2023-03-08T00:42:17;1.80;99.90
5154;DHT22;2595;53.584;10.084;2023-03-08T00:44:42;1.80;99.90
5154;DHT22;2595;53.584;10.084;2023-03-08T00:47:08;1.80;99.90
5154;DHT22;2595;53.584;10.084;2023-03-08T00:49:33;1.80;99.90
5154;DHT22;2595;53.584;10.084;2023-03-08T00:51:59;1.80;99.90
5154;DHT22;2595;53.584;10.084;2023-03-08T00:54:24;1.80;99.90
5154;DHT22;2595;53.584;10.084;2023-03-08T00:56:50;1.80;99.90
5154;DHT22;2595;53.584;10.084;2023-03-08T00:59:15;1.80;99.90
5154;DHT22;2595;53.584;10.084;2023-03-08T01:01:41;1.80;99.90
5154;DHT22;2595;53.584;10.084;2023-03-08T01:04:07;1.80;99.90
5154;DHT22;2595;53.584;10.084;2023-03-08T01:06:32;1.80;99.90
5154;DHT22;2595;53.584;10.084;2023-03-08T01:08:58;1.80;99.90
5154;DHT22;2595;53.584;10.084;2023-03-08T01:11:25;1.80;99.90
5154;DHT22;2595;53.584;10.084;2023-03-08T01:13:52;1.80;99.90
5154;DHT22;2595;53.584;10.084;2023-03-08T01:16:23;1.70;99.90
5154;DHT22;2595;53.584;10.084;2023-03-08T01:18:49;1.70;99.90
5154;DHT22;2595;53.584;10.084;2023-03-08T01:21:15;1.70;99.90
5154;DHT22;2595;53.584;10.084;2023-03-08T01:23:41;1.70;99.90
5154;DHT22;2595;53.584;10.084;2023-03-08T01:26:10;1.70;99.90
5154;DHT22;2595;53.584;10.084;2023-03-08T01:28:36;1.70;99.90
5154;DHT22;2595;53.584;10.084;2023-03-08T01:31:07;1.70;99.90
5154;DHT22;2595;53.584;10.084;2023-03-08T01:33:34;1.70;99.90
5154;DHT22;2595;53.584;10.084;2023-03-08T01:36:05;1.70;99.90
5154;DHT22;2595;53.584;10.084;2023-03-08T01:38:31;1.70;99.90
5154;DHT22;2595;53.584;10.084;2023-03-08T01:40:58;1.80;99.90
5154;DHT22;2595;53.584;10.084;2023-03-08T01:43:36;1.70;99.90
5154;DHT22;2595;53.584;10.084;2023-03-08T01:48:54;1.60;99.90
5154;DHT22;2595;53.584;10.084;2023-03-08T01:51:29;1.60;99.90
5154;DHT22;2595;53.584;10.084;2023-03-08T01:53:56;1.70;99.90
5154;DHT22;2595;53.584;10.084;2023-03-08T01:56:24;1.70;99.90
5154;DHT22;2595;53.584;10.084;2023-03-08T01:58:50;1.70;99.90
5154;DHT22;2595;53.584;10.084;2023-03-08T02:01:18;1.60;99.90
5154;DHT22;2595;53.584;10.084;2023-03-08T02:03:44;1.60;99.90
5154;DHT22;2595;53.584;10.084;2023-03-08T02:06:11;1.60;99.90
5154;DHT22;2595;53.584;10.084;2023-03-08T02:08:37;1.60;99.90
5154;DHT22;2595;53.584;10.084;2023-03-08T02:11:03;1.60;99.90
5154;DHT22;2595;53.584;10.084;2023-03-08T02:13:29;1.60;99.90
5154;DHT22;2595;53.584;10.084;2023-03-08T02:15:55;1.60;99.90
5154;DHT22;2595;53.584;10.084;2023-03-08T02:18:22;1.60;99.90
5154;DHT22;2595;53.584;10.084;2023-03-08T02:20:48;1.60;99.90
5154;DHT22;2595;53.584;10.084;2023-03-08T02:23:22;1.60;99.90
5154;DHT22;2595;53.584;10.084;2023-03-08T02:25:58;1.50;99.90
5154;DHT22;2595;53.584;10.084;2023-03-08T02:28:26;1.50;99.90
5154;DHT22;2595;53.584;10.084;2023-03-08T02:30:53;1.50;99.90
5154;DHT22;2595;53.584;10.084;2023-03-08T02:33:19;1.50;99.90
5154;DHT22;2595;53.584;10.084;2023-03-08T02:35:45;1.50;99.90
5154;DHT22;2595;53.584;10.084;2023-03-08T02:38:13;1.50;99.90
5154;DHT22;2595;53.584;10.084;2023-03-08T02:40:39;1.50;99.90
5154;DHT22;2595;53.584;10.084;2023-03-08T02:43:05;1.50;99.90
5154;DHT22;2595;53.584;10.084;2023-03-08T02:45:31;1.50;99.90
5154;DHT22;2595;53.584;10.084;2023-03-08T02:47:59;1.50;99.90
5154;DHT22;2595;53.584;10.084;2023-03-08T02:50:24;1.60;99.90
5154;DHT22;2595;53.584;10.084;2023-03-08T02:52:50;1.60;99.90
5154;DHT22;2595;53.584;10.084;2023-03-08T02:55:16;1.60;99.90
5154;DHT22;2595;53.584;10.084;2023-03-08T02:57:41;1.70;99.90
5154;DHT22;2595;53.584;10.084;2023-03-08T03:00:07;1.70;99.90
5154;DHT22;2595;53.584;10.084;2023-03-08T03:02:34;1.70;99.90
5154;DHT22;2595;53.584;10.084;2023-03-08T03:05:02;1.70;99.90
5154;DHT22;2595;53.584;10.084;2023-03-08T03:07:28;1.70;99.90
5154;DHT22;2595;53.584;10.084;2023-03-08T03:09:54;1.70;99.90
5154;DHT22;2595;53.584;10.084;2023-03-08T03:12:19;1.70;99.90
5154;DHT22;2595;53.584;10.084;2023-03-08T03:14:45;1.70;99.90
5154;DHT22;2595;53.584;10.084;2023-03-08T03:17:10;1.60;99.90
5154;DHT22;2595;53.584;10.084;2023-03-08T03:19:36;1.60;99.90
5154;DHT22;2595;53.584;10.084;2023-03-08T03:22:02;1.60;99.90
5154;DHT22;2595;53.584;10.084;2023-03-08T03:24:28;1.60;99.90
5154;DHT22;2595;53.584;10.084;2023-03-08T03:26:53;1.60;99.90
5154;DHT22;2595;53.584;10.084;2023-03-08T03:29:19;1.50;99.90
5154;DHT22;2595;53.584;10.084;2023-03-08T03:31:44;1.50;99.90
5154;DHT22;2595;53.584;10.084;2023-03-08T03:34:10;1.50;99.90
5154;DHT22;2595;53.584;10.084;2023-03-08T03:36:36;1.50;99.90
5154;DHT22;2595;53.584;10.084;2023-03-08T03:39:02;1.50;99.90
5154;DHT22;2595;53.584;10.084;2023-03-08T03:41:27;1.60;99.90
5154;DHT22;2595;53.584;10.084;2023-03-08T03:43:53;1.60;99.90
5154;DHT22;2595;53.584;10.084;2023-03-08T03:46:20;1.60;99.90
5154;DHT22;2595;53.584;10.084;2023-03-08T03:48:46;1.60;99.90
5154;DHT22;2595;53.584;10.084;2023-03-08T03:51:14;1.70;99.90
5154;DHT22;2595;53.584;10.084;2023-03-08T03:53:41;1.70;99.90
5154;DHT22;2595;53.584;10.084;2023-03-08T03:56:11;1.70;99.90
5154;DHT22;2595;53.584;10.084;2023-03-08T03:58:36;1.70;99.90
5154;DHT22;2595;53.584;10.084;2023-03-08T04:01:07;1.70;99.90
5154;DHT22;2595;53.584;10.084;2023-03-08T04:03:32;1.70;99.90
5154;DHT22;2595;53.584;10.084;2023-03-08T04:06:06;1.70;99.90
5154;DHT22;2595;53.584;10.084;2023-03-08T04:08:32;1.80;99.90
5154;DHT22;2595;53.584;10.084;2023-03-08T04:11:00;1.80;99.90
5154;DHT22;2595;53.584;10.084;2023-03-08T04:13:26;1.80;99.90
5154;DHT22;2595;53.584;10.084;2023-03-08T04:15:51;1.80;99.90
5154;DHT22;2595;53.584;10.084;2023-03-08T04:18:17;1.70;99.90
5154;DHT22;2595;53.584;10.084;2023-03-08T04:20:46;1.80;99.90
5154;DHT22;2595;53.584;10.084;2023-03-08T04:23:11;1.80;99.90
5154;DHT22;2595;53.584;10.084;2023-03-08T04:25:37;1.80;99.90
5154;DHT22;2595;53.584;10.084;2023-03-08T04:28:03;1.70;99.90
5154;DHT22;2595;53.584;10.084;2023-03-08T04:30:28;1.70;99.90
5154;DHT22;2595;53.584;10.084;2023-03-08T04:32:55;1.70;99.90
5154;DHT22;2595;53.584;10.084;2023-03-08T04:35:20;1.70;99.90
5154;DHT22;2595;53.584;10.084;2023-03-08T04:37:47;1.70;99.90
5154;DHT22;2595;53.584;10.084;2023-03-08T04:40:12;1.70;99.90
5154;DHT22;2595;53.584;10.084;2023-03-08T04:42:38;1.80;99.90
5154;DHT22;2595;53.584;10.084;2023-03-08T04:45:06;1.70;99.90
5154;DHT22;2595;53.584;10.084;2023-03-08T04:47:32;1.80;99.90
5154;DHT22;2595;53.584;10.084;2023-03-08T04:49:57;1.80;99.90
5154;DHT22;2595;53.584;10.084;2023-03-08T04:52:23;1.80;99.90
5154;DHT22;2595;53.584;10.084;2023-03-08T04:54:49;1.80;99.90
5154;DHT22;2595;53.584;10.084;2023-03-08T04:57:14;1.80;99.90
5154;DHT22;2595;53.584;10.084;2023-03-08T04:59:42;1.80;99.90
5154;DHT22;2595;53.584;10.084;2023-03-08T05:02:08;1.80;99.90
5154;DHT22;2595;53.584;10.084;2023-03-08T05:04:33;1.80;99.90
5154;DHT22;2595;53.584;10.084;2023-03-08T05:06:59;1.90;99.90
5154;DHT22;2595;53.584;10.084;2023-03-08T05:09:24;1.80;99.90
5154;DHT22;2595;53.584;10.084;2023-03-08T05:11:50;1.90;99.90
5154;DHT22;2595;53.584;10.084;2023-03-08T05:14:16;1.90;99.90
5154;DHT22;2595;53.584;10.084;2023-03-08T05:16:41;1.80;99.90
5154;DHT22;2595;53.584;10.084;2023-03-08T05:19:07;1.80;99.90
5154;DHT22;2595;53.584;10.084;2023-03-08T05:21:32;1.80;99.90
5154;DHT22;2595;53.584;10.084;2023-03-08T05:23:59;1.80;99.90
5154;DHT22;2595;53.584;10.084;2023-03-08T05:26:25;1.80;99.90
5154;DHT22;2595;53.584;10.084;2023-03-08T05:28:50;1.80;99.90
5154;DHT22;2595;53.584;10.084;2023-03-08T05:31:18;1.80;99.90
5154;DHT22;2595;53.584;10.084;2023-03-08T05:33:45;1.80;99.90
5154;DHT22;2595;53.584;10.084;2023-03-08T05:36:13;1.80;99.90
5154;DHT22;2595;53.584;10.084;2023-03-08T05:38:38;1.80;99.90
5154;DHT22;2595;53.584;10.084;2023-03-08T05:41:06;1.80;99.90
5154;DHT22;2595;53.584;10.084;2023-03-08T05:43:33;1.80;99.90
5154;DHT22;2595;53.584;10.084;2023-03-08T05:46:10;1.80;99.90
5154;DHT22;2595;53.584;10.084;2023-03-08T05:48:36;1.80;99.90
5154;DHT22;2595;53.584;10.084;2023-03-08T05:51:14;1.80;99.90
5154;DHT22;2595;53.584;10.084;2023-03-08T05:53:40;1.80;99.90
5154;DHT22;2595;53.584;10.084;2023-03-08T05:56:10;1.80;99.90
5154;DHT22;2595;53.584;10.084;2023-03-08T05:58:36;1.80;99.90
5154;DHT22;2595;53.584;10.084;2023-03-08T06:01:10;1.80;99.90
5154;DHT22;2595;53.584;10.084;2023-03-08T06:03:36;1.90;99.90
5154;DHT22;2595;53.584;10.084;2023-03-08T06:06:02;1.80;99.90
5154;DHT22;2595;53.584;10.084;2023-03-08T06:08:27;1.80;99.90
5154;DHT22;2595;53.584;10.084;2023-03-08T06:10:53;1.90;99.90
5154;DHT22;2595;53.584;10.084;2023-03-08T06:13:18;1.90;99.90
5154;DHT22;2595;53.584;10.084;2023-03-08T06:15:44;1.80;99.90
5154;DHT22;2595;53.584;10.084;2023-03-08T06:18:10;1.90;99.90
5154;DHT22;2595;53.584;10.084;2023-03-08T06:20:35;1.90;99.90
5154;DHT22;2595;53.584;10.084;2023-03-08T06:23:01;1.80;99.90
5154;DHT22;2595;53.584;10.084;2023-03-08T06:25:26;1.80;99.90
5154;DHT22;2595;53.584;10.084;2023-03-08T06:27:52;1.90;99.90
5154;DHT22;2595;53.584;10.084;2023-03-08T06:30:17;1.80;99.90
5154;DHT22;2595;53.584;10.084;2023-03-08T06:32:43;1.90;99.90
5154;DHT22;2595;53.584;10.084;2023-03-08T06:35:09;1.80;99.90
5154;DHT22;2595;53.584;10.084;2023-03-08T06:37:35;1.90;99.90
5154;DHT22;2595;53.584;10.084;2023-03-08T06:40:01;1.90;99.90
5154;DHT22;2595;53.584;10.084;2023-03-08T06:42:28;1.90;99.90
5154;DHT22;2595;53.584;10.084;2023-03-08T06:44:53;1.90;99.90
5154;DHT22;2595;53.584;10.084;2023-03-08T06:47:19;1.90;99.90
5154;DHT22;2595;53.584;10.084;2023-03-08T06:49:44;1.90;99.90
5154;DHT22;2595;53.584;10.084;2023-03-08T06:52:10;1.90;99.90
5154;DHT22;2595;53.584;10.084;2023-03-08T06:54:35;1.90;99.90
5154;DHT22;2595;53.584;10.084;2023-03-08T06:57:01;1.90;99.90
5154;DHT22;2595;53.584;10.084;2023-03-08T06:59:27;1.90;99.90
5154;DHT22;2595;53.584;10.084;2023-03-08T07:01:52;1.90;99.90
5154;DHT22;2595;53.584;10.084;2023-03-08T07:04:18;1.90;99.90
5154;DHT22;2595;53.584;10.084;2023-03-08T07:06:44;1.90;99.90
5154;DHT22;2595;53.584;10.084;2023-03-08T07:09:09;1.90;99.90
5154;DHT22;2595;53.584;10.084;2023-03-08T07:11:35;1.90;99.90
5154;DHT22;2595;53.584;10.084;2023-03-08T07:14:00;1.90;99.90
5154;DHT22;2595;53.584;10.084;2023-03-08T07:16:26;1.80;99.90
5154;DHT22;2595;53.584;10.084;2023-03-08T07:18:52;1.80;99.90
5154;DHT22;2595;53.584;10.084;2023-03-08T07:21:17;1.80;99.90
5154;DHT22;2595;53.584;10.084;2023-03-08T07:23:43;1.80;99.90
5154;DHT22;2595;53.584;10.084;2023-03-08T07:26:09;1.80;99.90
5154;DHT22;2595;53.584;10.084;2023-03-08T07:28:35;1.80;99.90
5154;DHT22;2595;53.584;10.084;2023-03-08T07:31:01;1.90;99.90
5154;DHT22;2595;53.584;10.084;2023-03-08T07:33:26;1.90;99.90
5154;DHT22;2595;53.584;10.084;2023-03-08T07:35:52;1.90;99.90
5154;DHT22;2595;53.584;10.084;2023-03-08T07:38:17;1.90;99.90
5154;DHT22;2595;53.584;10.084;2023-03-08T07:40:43;1.90;99.90
5154;DHT22;2595;53.584;10.084;2023-03-08T07:43:09;1.90;99.90
5154;DHT22;2595;53.584;10.084;2023-03-08T07:45:37;2.00;99.90
5154;DHT22;2595;53.584;10.084;2023-03-08T07:48:06;2.10;99.90
5154;DHT22;2595;53.584;10.084;2023-03-08T07:50:31;2.10;99.90
5154;DHT22;2595;53.584;10.084;2023-03-08T07:52:58;2.10;99.90
5154;DHT22;2595;53.584;10.084;2023-03-08T07:55:24;2.10;99.90
5154;DHT22;2595;53.584;10.084;2023-03-08T07:57:52;2.10;99.90
5154;DHT22;2595;53.584;10.084;2023-03-08T08:00:18;2.20;99.90
5154;DHT22;2595;53.584;10.084;2023-03-08T08:02:43;2.20;99.90
5154;DHT22;2595;53.584;10.084;2023-03-08T08:05:10;2.20;99.90
5154;DHT22;2595;53.584;10.084;2023-03-08T08:07:35;2.20;99.90
5154;DHT22;2595;53.584;10.084;2023-03-08T08:10:01;2.20;99.90
5154;DHT22;2595;53.584;10.084;2023-03-08T08:12:26;2.20;99.90
5154;DHT22;2595;53.584;10.084;2023-03-08T08:14:52;2.20;99.90
5154;DHT22;2595;53.584;10.084;2023-03-08T08:17:21;2.20;99.90
5154;DHT22;2595;53.584;10.084;2023-03-08T08:19:47;2.20;99.90
5154;DHT22;2595;53.584;10.084;2023-03-08T08:22:13;2.10;99.90
5154;DHT22;2595;53.584;10.084;2023-03-08T08:24:39;2.10;99.90
5154;DHT22;2595;53.584;10.084;2023-03-08T08:27:04;2.20;99.90
5154;DHT22;2595;53.584;10.084;2023-03-08T08:29:30;2.20;99.90
5154;DHT22;2595;53.584;10.084;2023-03-08T08:31:56;2.20;99.90
5154;DHT22;2595;53.584;10.084;2023-03-08T08:34:22;2.30;99.90
5154;DHT22;2595;53.584;10.084;2023-03-08T08:36:48;2.30;99.90
5154;DHT22;2595;53.584;10.084;2023-03-08T08:39:14;2.30;99.90
5154;DHT22;2595;53.584;10.084;2023-03-08T08:41:39;2.30;99.90
5154;DHT22;2595;53.584;10.084;2023-03-08T08:44:05;2.40;99.90
5154;DHT22;2595;53.584;10.084;2023-03-08T08:46:31;2.40;99.90
5154;DHT22;2595;53.584;10.084;2023-03-08T08:48:58;2.50;99.90
5154;DHT22;2595;53.584;10.084;2023-03-08T08:51:24;2.50;99.90
5154;DHT22;2595;53.584;10.084;2023-03-08T08:53:50;2.50;99.90
5154;DHT22;2595;53.584;10.084;2023-03-08T08:56:21;2.50;99.90
5154;DHT22;2595;53.584;10.084;2023-03-08T08:58:47;2.50;99.90
5154;DHT22;2595;53.584;10.084;2023-03-08T09:01:22;2.50;99.90
5154;DHT22;2595;53.584;10.084;2023-03-08T09:03:49;2.50;99.90
5154;DHT22;2595;53.584;10.084;2023-03-08T09:06:16;2.50;99.90
5154;DHT22;2595;53.584;10.084;2023-03-08T09:08:44;2.50;99.90
5154;DHT22;2595;53.584;10.084;2023-03-08T09:11:10;2.50;99.90
5154;DHT22;2595;53.584;10.084;2023-03-08T09:13:36;2.50;99.90
5154;DHT22;2595;53.584;10.084;2023-03-08T09:16:16;2.50;99.90
5154;DHT22;2595;53.584;10.084;2023-03-08T09:18:42;2.40;99.90
5154;DHT22;2595;53.584;10.084;2023-03-08T09:21:08;2.50;99.90
5154;DHT22;2595;53.584;10.084;2023-03-08T09:23:33;2.50;99.90
5154;DHT22;2595;53.584;10.084;2023-03-08T09:25:59;2.50;99.90
5154;DHT22;2595;53.584;10.084;2023-03-08T09:28:24;2.60;99.90
5154;DHT22;2595;53.584;10.084;2023-03-08T09:30:50;2.50;99.90
5154;DHT22;2595;53.584;10.084;2023-03-08T09:33:16;2.50;99.90
5154;DHT22;2595;53.584;10.084;2023-03-08T09:35:41;2.50;99.90
5154;DHT22;2595;53.584;10.084;2023-03-08T09:38:07;2.50;99.90
5154;DHT22;2595;53.584;10.084;2023-03-08T09:40:39;2.50;99.90
5154;DHT22;2595;53.584;10.084;2023-03-08T09:43:20;2.50;99.90
5154;DHT22;2595;53.584;10.084;2023-03-08T09:45:53;2.50;99.90
5154;DHT22;2595;53.584;10.084;2023-03-08T09:48:24;2.60;99.90
5154;DHT22;2595;53.584;10.084;2023-03-08T09:50:55;2.60;99.90
5154;DHT22;2595;53.584;10.084;2023-03-08T09:53:32;2.60;99.90
5154;DHT22;2595;53.584;10.084;2023-03-08T09:56:04;2.60;99.90
5154;DHT22;2595;53.584;10.084;2023-03-08T09:58:35;2.60;99.90
5154;DHT22;2595;53.584;10.084;2023-03-08T10:01:33;2.60;99.90
5154;DHT22;2595;53.584;10.084;2023-03-08T10:06:46;2.60;99.90
5154;DHT22;2595;53.584;10.084;2023-03-08T10:11:59;2.70;99.90
5154;DHT22;2595;53.584;10.084;2023-03-08T10:14:30;2.70;99.90
5154;DHT22;2595;53.584;10.084;2023-03-08T10:17:02;2.70;99.90
5154;DHT22;2595;53.584;10.084;2023-03-08T10:19:36;2.70;99.90
5154;DHT22;2595;53.584;10.084;2023-03-08T10:22:18;2.80;99.90
5154;DHT22;2595;53.584;10.084;2023-03-08T10:27:24;2.80;99.90
5154;DHT22;2595;53.584;10.084;2023-03-08T10:29:52;2.80;99.90
5154;DHT22;2595;53.584;10.084;2023-03-08T10:32:19;2.80;99.90
5154;DHT22;2595;53.584;10.084;2023-03-08T10:34:45;2.80;99.90
5154;DHT22;2595;53.584;10.084;2023-03-08T10:37:11;2.80;99.90
5154;DHT22;2595;53.584;10.084;2023-03-08T10:42:15;2.80;99.90
5154;DHT22;2595;53.584;10.084;2023-03-08T10:45:03;2.90;99.90
5154;DHT22;2595;53.584;10.084;2023-03-08T10:47:30;2.90;99.90
5154;DHT22;2595;53.584;10.084;2023-03-08T10:50:19;2.90;99.90
5154;DHT22;2595;53.584;10.084;2023-03-08T10:52:48;2.90;99.90
5154;DHT22;2595;53.584;10.084;2023-03-08T10:55:18;2.90;99.90
5154;DHT22;2595;53.584;10.084;2023-03-08T10:57:55;2.90;99.90
5154;DHT22;2595;53.584;10.084;2023-03-08T11:00:36;2.90;99.90
5154;DHT22;2595;53.584;10.084;2023-03-08T11:05:27;3.00;99.90
5154;DHT22;2595;53.584;10.084;2023-03-08T11:07:55;3.00;99.90
5154;DHT22;2595;53.584;10.084;2023-03-08T11:10:24;3.00;99.90
5154;DHT22;2595;53.584;10.084;2023-03-08T11:13:27;3.10;99.90
5154;DHT22;2595;53.584;10.084;2023-03-08T11:16:19;3.10;99.90
5154;DHT22;2595;53.584;10.084;2023-03-08T11:32:48;3.40;99.90
5154;DHT22;2595;53.584;10.084;2023-03-08T11:35:31;3.40;99.90
5154;DHT22;2595;53.584;10.084;2023-03-08T11:38:41;3.40;99.90
5154;DHT22;2595;53.584;10.084;2023-03-08T11:41:00;3.40;99.90
5154;DHT22;2595;53.584;10.084;2023-03-08T11:46:23;3.50;99.90
5154;DHT22;2595;53.584;10.084;2023-03-08T11:51:55;3.80;99.90
5154;DHT22;2595;53.584;10.084;2023-03-08T11:57:13;4.20;99.90
5154;DHT22;2595;53.584;10.084;2023-03-08T11:59:51;4.30;99.90
5154;DHT22;2595;53.584;10.084;2023-03-08T12:02:26;4.40;99.90
5154;DHT22;2595;53.584;10.084;2023-03-08T12:05:09;4.50;99.90
5154;DHT22;2595;53.584;10.084;2023-03-08T12:07:46;4.50;99.90
5154;DHT22;2595;53.584;10.084;2023-03-08T12:10:24;4.60;99.90
5154;DHT22;2595;53.584;10.084;2023-03-08T12:12:58;4.80;99.90
5154;DHT22;2595;53.584;10.084;2023-03-08T12:15:45;4.90;99.90
5154;DHT22;2595;53.584;10.084;2023-03-08T12:18:33;4.90;99.90
5154;DHT22;2595;53.584;10.084;2023-03-08T12:29:49;5.20;99.90
5154;DHT22;2595;53.584;10.084;2023-03-08T12:32:16;5.20;99.90
5154;DHT22;2595;53.584;10.084;2023-03-08T12:34:45;5.30;99.90
5154;DHT22;2595;53.584;10.084;2023-03-08T12:37:19;5.30;99.90
5154;DHT22;2595;53.584;10.084;2023-03-08T12:40:05;5.30;99.90
5154;DHT22;2595;53.584;10.084;2023-03-08T12:42:41;5.40;99.90
5154;DHT22;2595;53.584;10.084;2023-03-08T12:50:28;5.60;99.90
5154;DHT22;2595;53.584;10.084;2023-03-08T12:52:54;5.80;99.90
5154;DHT22;2595;53.584;10.084;2023-03-08T12:55:26;5.90;99.90
5154;DHT22;2595;53.584;10.084;2023-03-08T12:57:58;5.90;99.90
5154;DHT22;2595;53.584;10.084;2023-03-08T13:05:39;6.00;99.90
5154;DHT22;2595;53.584;10.084;2023-03-08T13:08:15;6.00;99.90
5154;DHT22;2595;53.584;10.084;2023-03-08T13:18:46;5.70;99.90
5154;DHT22;2595;53.584;10.084;2023-03-08T13:29:38;5.40;99.90
5154;DHT22;2595;53.584;10.084;2023-03-08T13:32:12;5.40;99.90
5154;DHT22;2595;53.584;10.084;2023-03-08T13:34:39;5.40;99.90
5154;DHT22;2595;53.584;10.084;2023-03-08T13:37:19;5.30;99.90
5154;DHT22;2595;53.584;10.084;2023-03-08T13:39:54;5.30;99.90
5154;DHT22;2595;53.584;10.084;2023-03-08T13:42:20;5.30;99.90
5154;DHT22;2595;53.584;10.084;2023-03-08T13:45:04;5.30;99.90
5154;DHT22;2595;53.584;10.084;2023-03-08T13:47:33;5.30;99.90
5154;DHT22;2595;53.584;10.084;2023-03-08T13:49:59;5.30;99.90
5154;DHT22;2595;53.584;10.084;2023-03-08T13:52:31;5.30;99.90
5154;DHT22;2595;53.584;10.084;2023-03-08T13:55:01;5.30;99.90
5154;DHT22;2595;53.584;10.084;2023-03-08T13:57:32;5.20;99.90
5154;DHT22;2595;53.584;10.084;2023-03-08T14:00:18;5.20;99.90
5154;DHT22;2595;53.584;10.084;2023-03-08T14:02:45;5.20;99.90
5154;DHT22;2595;53.584;10.084;2023-03-08T14:05:26;5.20;99.90
5154;DHT22;2595;53.584;10.084;2023-03-08T14:08:04;5.20;99.90
5154;DHT22;2595;53.584;10.084;2023-03-08T14:10:39;5.10;99.90
5154;DHT22;2595;53.584;10.084;2023-03-08T14:13:13;5.10;99.90
5154;DHT22;2595;53.584;10.084;2023-03-08T14:15:48;5.10;99.90
5154;DHT22;2595;53.584;10.084;2023-03-08T14:18:22;5.20;99.90
5154;DHT22;2595;53.584;10.084;2023-03-08T14:21:12;5.20;99.90
5154;DHT22;2595;53.584;10.084;2023-03-08T14:23:41;5.20;99.90
5154;DHT22;2595;53.584;10.084;2023-03-08T14:26:36;5.30;99.90
5154;DHT22;2595;53.584;10.084;2023-03-08T14:29:19;5.30;99.90
5154;DHT22;2595;53.584;10.084;2023-03-08T14:34:37;5.30;99.90
5154;DHT22;2595;53.584;10.084;2023-03-08T14:39:43;5.20;99.90
5154;DHT22;2595;53.584;10.084;2023-03-08T14:42:21;5.10;99.90
5154;DHT22;2595;53.584;10.084;2023-03-08T14:47:56;5.10;99.90
5154;DHT22;2595;53.584;10.084;2023-03-08T14:50:32;5.10;99.90
5154;DHT22;2595;53.584;10.084;2023-03-08T14:53:00;5.10;99.90
5154;DHT22;2595;53.584;10.084;2023-03-08T14:55:34;5.10;99.90
5154;DHT22;2595;53.584;10.084;2023-03-08T14:58:03;5.10;99.90
5154;DHT22;2595;53.584;10.084;2023-03-08T15:00:32;5.10;99.90
5154;DHT22;2595;53.584;10.084;2023-03-08T15:02:59;5.20;99.90
5154;DHT22;2595;53.584;10.084;2023-03-08T15:05:25;5.20;99.90
5154;DHT22;2595;53.584;10.084;2023-03-08T15:07:52;5.20;99.90
5154;DHT22;2595;53.584;10.084;2023-03-08T15:12:47;5.20;99.90
5154;DHT22;2595;53.584;10.084;2023-03-08T15:15:14;5.20;99.90
5154;DHT22;2595;53.584;10.084;2023-03-08T15:17:39;5.10;99.90
5154;DHT22;2595;53.584;10.084;2023-03-08T15:20:06;5.20;99.90
5154;DHT22;2595;53.584;10.084;2023-03-08T15:22:33;5.20;99.90
5154;DHT22;2595;53.584;10.084;2023-03-08T15:25:00;5.10;99.90
5154;DHT22;2595;53.584;10.084;2023-03-08T15:27:25;5.10;99.90
5154;DHT22;2595;53.584;10.084;2023-03-08T15:29:51;5.10;99.90
5154;DHT22;2595;53.584;10.084;2023-03-08T15:32:16;5.10;99.90
5154;DHT22;2595;53.584;10.084;2023-03-08T15:34:42;5.10;99.90
5154;DHT22;2595;53.584;10.084;2023-03-08T15:37:12;5.10;99.90
5154;DHT22;2595;53.584;10.084;2023-03-08T15:39:38;5.10;99.90
5154;DHT22;2595;53.584;10.084;2023-03-08T15:42:04;5.00;99.90
5154;DHT22;2595;53.584;10.084;2023-03-08T15:44:30;5.00;99.90
5154;DHT22;2595;53.584;10.084;2023-03-08T15:46:56;5.00;99.90
5154;DHT22;2595;53.584;10.084;2023-03-08T15:49:21;5.00;99.90
5154;DHT22;2595;53.584;10.084;2023-03-08T15:51:47;5.00;99.90
5154;DHT22;2595;53.584;10.084;2023-03-08T15:54:12;5.00;99.90
5154;DHT22;2595;53.584;10.084;2023-03-08T15:56:38;5.00;99.90
5154;DHT22;2595;53.584;10.084;2023-03-08T15:59:04;4.90;99.90
5154;DHT22;2595;53.584;10.084;2023-03-08T16:01:29;4.90;99.90
5154;DHT22;2595;53.584;10.084;2023-03-08T16:03:57;4.90;99.90
5154;DHT22;2595;53.584;10.084;2023-03-08T16:06:23;4.90;99.90
5154;DHT22;2595;53.584;10.084;2023-03-08T16:08:49;4.90;99.90
5154;DHT22;2595;53.584;10.084;2023-03-08T16:11:17;4.80;99.90
5154;DHT22;2595;53.584;10.084;2023-03-08T16:13:50;4.80;99.90
5154;DHT22;2595;53.584;10.084;2023-03-08T16:16:17;4.80;99.90
5154;DHT22;2595;53.584;10.084;2023-03-08T16:18:43;4.80;99.90
5154;DHT22;2595;53.584;10.084;2023-03-08T16:21:09;4.70;99.90
5154;DHT22;2595;53.584;10.084;2023-03-08T16:23:36;4.70;99.90
5154;DHT22;2595;53.584;10.084;2023-03-08T16:26:04;4.70;99.90
5154;DHT22;2595;53.584;10.084;2023-03-08T16:28:30;4.70;99.90
5154;DHT22;2595;53.584;10.084;2023-03-08T16:30:56;4.60;99.90
5154;DHT22;2595;53.584;10.084;2023-03-08T16:33:22;4.60;99.90
5154;DHT22;2595;53.584;10.084;2023-03-08T16:35:49;4.60;99.90
5154;DHT22;2595;53.584;10.084;2023-03-08T16:38:15;4.50;99.90
5154;DHT22;2595;53.584;10.084;2023-03-08T16:40:41;4.50;99.90
5154;DHT22;2595;53.584;10.084;2023-03-08T16:43:06;4.50;99.90
5154;DHT22;2595;53.584;10.084;2023-03-08T16:45:32;4.50;99.90
5154;DHT22;2595;53.584;10.084;2023-03-08T16:47:59;4.50;99.90
5154;DHT22;2595;53.584;10.084;2023-03-08T16:50:24;4.40;99.90
5154;DHT22;2595;53.584;10.084;2023-03-08T16:52:55;4.40;99.90
5154;DHT22;2595;53.584;10.084;2023-03-08T16:55:21;4.40;99.90
5154;DHT22;2595;53.584;10.084;2023-03-08T16:57:47;4.40;99.90
5154;DHT22;2595;53.584;10.084;2023-03-08T17:00:13;4.30;99.90
5154;DHT22;2595;53.584;10.084;2023-03-08T17:02:39;4.30;99.90
5154;DHT22;2595;53.584;10.084;2023-03-08T17:05:05;4.30;99.90
5154;DHT22;2595;53.584;10.084;2023-03-08T17:07:31;4.30;99.90
5154;DHT22;2595;53.584;10.084;2023-03-08T17:09:57;4.30;99.90
5154;DHT22;2595;53.584;10.084;2023-03-08T17:12:23;4.30;99.90
5154;DHT22;2595;53.584;10.084;2023-03-08T17:14:49;4.20;99.90
5154;DHT22;2595;53.584;10.084;2023-03-08T17:17:15;4.20;99.90
5154;DHT22;2595;53.584;10.084;2023-03-08T17:19:40;4.20;99.90
5154;DHT22;2595;53.584;10.084;2023-03-08T17:22:07;4.20;99.90
5154;DHT22;2595;53.584;10.084;2023-03-08T17:24:32;4.20;99.90
5154;DHT22;2595;53.584;10.084;2023-03-08T17:26:58;4.20;99.90
5154;DHT22;2595;53.584;10.084;2023-03-08T17:29:24;4.20;99.90
5154;DHT22;2595;53.584;10.084;2023-03-08T17:31:50;4.20;99.90
5154;DHT22;2595;53.584;10.084;2023-03-08T17:34:17;4.20;99.90